sensor_id;sensor_type;location;lat;lon;timestamp;temperature;humidity
48728;DHT22;34527;45.618;5.130;2023-08-01T00:00:00;21.90;99.90
48728;DHT22;34527;45.618;5.130;2023-08-01T00:02:26;21.90;99.90
48728;DHT22;34527;45.618;5.130;2023-08-01T00:04:52;21.90;99.90
48728;DHT22;34527;45.618;5.130;2023-08-01T00:07:17;21.90;99.90
48728;DHT22;34527;45.618;5.130;2023-08-01T00:09:43;21.80;99.90
48728;DHT22;34527;45.618;5.130;2023-08-01T00:12:08;21.80;99.90
48728;DHT22;34527;45.618;5.130;2023-08-01T00:14:35;21.80;99.90
48728;DHT22;34527;45.618;5.130;2023-08-01T00:17:01;21.80;99.90
48728;DHT22;34527;45.618;5.130;2023-08-01T00:19:28;21.80;99.90
48728;DHT22;34527;45.618;5.130;2023-08-01T00:21:54;21.80;99.90
48728;DHT22;34527;45.618;5.130;2023-08-01T00:24:19;21.80;99.90
48728;DHT22;34527;45.618;5.130;2023-08-01T00:26:45;21.80;99.90
48728;DHT22;34527;45.618;5.130;2023-08-01T00:29:10;21.90;99.90
48728;DHT22;34527;45.618;5.130;2023-08-01T00:31:36;21.80;99.90
48728;DHT22;34527;45.618;5.130;2023-08-01T00:34:01;21.70;99.90
48728;DHT22;34527;45.618;5.130;2023-08-01T00:36:27;21.70;99.90
48728;DHT22;34527;45.618;5.130;2023-08-01T00:38:53;21.60;99.90
48728;DHT22;34527;45.618;5.130;2023-08-01T00:41:19;21.50;99.90
48728;DHT22;34527;45.618;5.130;2023-08-01T00:43:44;21.50;99.90
48728;DHT22;34527;45.618;5.130;2023-08-01T00:46:10;21.40;99.90
48728;DHT22;34527;45.618;5.130;2023-08-01T00:48:36;21.40;99.90
48728;DHT22;34527;45.618;5.130;2023-08-01T00:51:05;21.40;99.90
48728;DHT22;34527;45.618;5.130;2023-08-01T00:53:32;21.30;99.90
48728;DHT22;34527;45.618;5.130;2023-08-01T00:55:58;21.20;99.90
48728;DHT22;34527;45.618;5.130;2023-08-01T00:58:25;21.30;99.90
48728;DHT22;34527;45.618;5.130;2023-08-01T01:00:52;21.30;99.90
48728;DHT22;34527;45.618;5.130;2023-08-01T01:03:18;21.30;99.90
48728;DHT22;34527;45.618;5.130;2023-08-01T01:05:52;21.00;99.90
48728;DHT22;34527;45.618;5.130;2023-08-01T01:08:19;20.70;99.90
48728;DHT22;34527;45.618;5.130;2023-08-01T01:10:45;20.60;99.90
48728;DHT22;34527;45.618;5.130;2023-08-01T01:13:11;20.60;99.90
48728;DHT22;34527;45.618;5.130;2023-08-01T01:15:36;20.60;99.90
48728;DHT22;34527;45.618;5.130;2023-08-01T01:18:02;20.50;99.90
48728;DHT22;34527;45.618;5.130;2023-08-01T01:20:33;20.30;99.90
48728;DHT22;34527;45.618;5.130;2023-08-01T01:23:00;20.30;99.90
48728;DHT22;34527;45.618;5.130;2023-08-01T01:25:27;20.10;99.90
48728;DHT22;34527;45.618;5.130;2023-08-01T01:27:54;19.80;99.90
48728;DHT22;34527;45.618;5.130;2023-08-01T01:30:20;19.60;99.90
48728;DHT22;34527;45.618;5.130;2023-08-01T01:32:46;19.60;99.90
48728;DHT22;34527;45.618;5.130;2023-08-01T01:35:11;19.50;99.90
48728;DHT22;34527;45.618;5.130;2023-08-01T01:37:37;19.40;99.90
48728;DHT22;34527;45.618;5.130;2023-08-01T01:40:02;19.40;99.90
48728;DHT22;34527;45.618;5.130;2023-08-01T01:42:29;19.40;99.90
48728;DHT22;34527;45.618;5.130;2023-08-01T01:44:54;19.30;99.90
48728;DHT22;34527;45.618;5.130;2023-08-01T01:47:20;19.30;99.90
48728;DHT22;34527;45.618;5.130;2023-08-01T01:49:45;19.10;99.90
48728;DHT22;34527;45.618;5.130;2023-08-01T01:52:11;19.00;99.90
48728;DHT22;34527;45.618;5.130;2023-08-01T01:54:36;18.90;99.90
48728;DHT22;34527;45.618;5.130;2023-08-01T01:57:02;18.80;99.90
48728;DHT22;34527;45.618;5.130;2023-08-01T01:59:28;18.60;99.90
48728;DHT22;34527;45.618;5.130;2023-08-01T02:01:53;18.60;99.90
48728;DHT22;34527;45.618;5.130;2023-08-01T02:04:19;18.60;99.90
48728;DHT22;34527;45.618;5.130;2023-08-01T02:06:45;18.50;99.90
48728;DHT22;34527;45.618;5.130;2023-08-01T02:09:10;18.60;99.90
48728;DHT22;34527;45.618;5.130;2023-08-01T02:11:36;18.70;99.90
48728;DHT22;34527;45.618;5.130;2023-08-01T02:14:01;18.70;99.90
48728;DHT22;34527;45.618;5.130;2023-08-01T02:16:28;18.60;99.90
48728;DHT22;34527;45.618;5.130;2023-08-01T02:18:54;18.60;99.90
48728;DHT22;34527;45.618;5.130;2023-08-01T02:21:19;18.60;99.90
48728;DHT22;34527;45.618;5.130;2023-08-01T02:23:45;18.60;99.90
48728;DHT22;34527;45.618;5.130;2023-08-01T02:26:10;18.60;99.90
48728;DHT22;34527;45.618;5.130;2023-08-01T02:28:36;18.70;99.90
48728;DHT22;34527;45.618;5.130;2023-08-01T02:31:02;18.60;99.90
48728;DHT22;34527;45.618;5.130;2023-08-01T02:33:27;18.60;99.90
48728;DHT22;34527;45.618;5.130;2023-08-01T02:35:53;18.60;99.90
48728;DHT22;34527;45.618;5.130;2023-08-01T02:38:18;18.60;99.90
48728;DHT22;34527;45.618;5.130;2023-08-01T02:40:44;18.60;99.90
48728;DHT22;34527;45.618;5.130;2023-08-01T02:43:10;18.70;99.90
48728;DHT22;34527;45.618;5.130;2023-08-01T02:45:35;18.70;99.90
48728;DHT22;34527;45.618;5.130;2023-08-01T02:48:01;18.60;99.90
48728;DHT22;34527;45.618;5.130;2023-08-01T02:50:26;18.70;99.90
48728;DHT22;34527;45.618;5.130;2023-08-01T02:52:52;18.70;99.90
48728;DHT22;34527;45.618;5.130;2023-08-01T02:55:18;18.70;99.90
48728;DHT22;34527;45.618;5.130;2023-08-01T02:57:43;18.80;99.90
48728;DHT22;34527;45.618;5.130;2023-08-01T03:00:09;18.90;99.90
48728;DHT22;34527;45.618;5.130;2023-08-01T03:02:40;19.10;99.90
48728;DHT22;34527;45.618;5.130;2023-08-01T03:05:07;19.30;99.90
48728;DHT22;34527;45.618;5.130;2023-08-01T03:07:33;19.40;99.90
48728;DHT22;34527;45.618;5.130;2023-08-01T03:09:59;19.50;99.90
48728;DHT22;34527;45.618;5.130;2023-08-01T03:12:24;19.70;99.90
48728;DHT22;34527;45.618;5.130;2023-08-01T03:14:50;19.80;99.90
48728;DHT22;34527;45.618;5.130;2023-08-01T03:17:16;19.80;99.90
48728;DHT22;34527;45.618;5.130;2023-08-01T03:19:42;19.60;99.90
48728;DHT22;34527;45.618;5.130;2023-08-01T03:22:08;19.50;99.90
48728;DHT22;34527;45.618;5.130;2023-08-01T03:24:33;19.50;99.90
48728;DHT22;34527;45.618;5.130;2023-08-01T03:26:59;19.50;99.90
48728;DHT22;34527;45.618;5.130;2023-08-01T03:29:24;19.70;99.90
48728;DHT22;34527;45.618;5.130;2023-08-01T03:31:50;19.90;99.90
48728;DHT22;34527;45.618;5.130;2023-08-01T03:34:15;20.00;99.90
48728;DHT22;34527;45.618;5.130;2023-08-01T03:36:41;20.10;99.90
48728;DHT22;34527;45.618;5.130;2023-08-01T03:39:07;20.30;99.90
48728;DHT22;34527;45.618;5.130;2023-08-01T03:41:35;20.30;99.90
48728;DHT22;34527;45.618;5.130;2023-08-01T03:44:01;20.40;99.90
48728;DHT22;34527;45.618;5.130;2023-08-01T03:46:26;20.50;99.90
48728;DHT22;34527;45.618;5.130;2023-08-01T03:48:52;20.60;99.90
48728;DHT22;34527;45.618;5.130;2023-08-01T03:51:18;20.70;99.90
48728;DHT22;34527;45.618;5.130;2023-08-01T03:53:44;20.70;99.90
48728;DHT22;34527;45.618;5.130;2023-08-01T03:56:11;20.80;99.90
48728;DHT22;34527;45.618;5.130;2023-08-01T03:58:37;20.80;99.90
48728;DHT22;34527;45.618;5.130;2023-08-01T04:01:02;20.80;99.90
48728;DHT22;34527;45.618;5.130;2023-08-01T04:03:28;20.90;99.90
48728;DHT22;34527;45.618;5.130;2023-08-01T04:05:53;20.90;99.90
48728;DHT22;34527;45.618;5.130;2023-08-01T04:08:20;21.00;99.90
48728;DHT22;34527;45.618;5.130;2023-08-01T04:10:45;21.00;99.90
48728;DHT22;34527;45.618;5.130;2023-08-01T04:13:11;21.00;99.90
48728;DHT22;34527;45.618;5.130;2023-08-01T04:15:37;21.10;99.90
48728;DHT22;34527;45.618;5.130;2023-08-01T04:18:02;21.10;99.90
48728;DHT22;34527;45.618;5.130;2023-08-01T04:20:28;21.20;99.90
48728;DHT22;34527;45.618;5.130;2023-08-01T04:22:53;21.20;99.90
48728;DHT22;34527;45.618;5.130;2023-08-01T04:25:19;21.20;99.90
48728;DHT22;34527;45.618;5.130;2023-08-01T04:27:45;21.20;99.90
48728;DHT22;34527;45.618;5.130;2023-08-01T04:30:11;21.20;99.90
48728;DHT22;34527;45.618;5.130;2023-08-01T04:32:36;21.20;99.90
48728;DHT22;34527;45.618;5.130;2023-08-01T04:35:02;21.20;99.90
48728;DHT22;34527;45.618;5.130;2023-08-01T04:37:28;21.00;99.90
48728;DHT22;34527;45.618;5.130;2023-08-01T04:39:53;20.80;99.90
48728;DHT22;34527;45.618;5.130;2023-08-01T04:42:19;20.70;99.90
48728;DHT22;34527;45.618;5.130;2023-08-01T04:44:45;20.60;99.90
48728;DHT22;34527;45.618;5.130;2023-08-01T04:47:10;20.50;99.90
48728;DHT22;34527;45.618;5.130;2023-08-01T04:49:36;20.60;99.90
48728;DHT22;34527;45.618;5.130;2023-08-01T04:52:02;20.60;99.90
48728;DHT22;34527;45.618;5.130;2023-08-01T04:54:28;20.60;99.90
48728;DHT22;34527;45.618;5.130;2023-08-01T04:56:53;20.60;99.90
48728;DHT22;34527;45.618;5.130;2023-08-01T04:59:19;20.60;99.90
48728;DHT22;34527;45.618;5.130;2023-08-01T05:01:45;20.50;99.90
48728;DHT22;34527;45.618;5.130;2023-08-01T05:04:11;20.50;99.90
48728;DHT22;34527;45.618;5.130;2023-08-01T05:06:36;20.60;99.90
48728;DHT22;34527;45.618;5.130;2023-08-01T05:09:02;20.60;99.90
48728;DHT22;34527;45.618;5.130;2023-08-01T05:11:28;20.60;99.90
48728;DHT22;34527;45.618;5.130;2023-08-01T05:13:53;20.60;99.90
48728;DHT22;34527;45.618;5.130;2023-08-01T05:16:19;20.60;99.90
48728;DHT22;34527;45.618;5.130;2023-08-01T05:18:44;20.60;99.90
48728;DHT22;34527;45.618;5.130;2023-08-01T05:21:10;20.60;99.90
48728;DHT22;34527;45.618;5.130;2023-08-01T05:23:36;20.60;99.90
48728;DHT22;34527;45.618;5.130;2023-08-01T05:26:01;20.60;99.90
48728;DHT22;34527;45.618;5.130;2023-08-01T05:28:27;20.60;99.90
48728;DHT22;34527;45.618;5.130;2023-08-01T05:30:53;20.60;99.90
48728;DHT22;34527;45.618;5.130;2023-08-01T05:33:19;20.60;99.90
48728;DHT22;34527;45.618;5.130;2023-08-01T05:35:44;20.50;99.90
48728;DHT22;34527;45.618;5.130;2023-08-01T05:38:10;20.50;99.90
48728;DHT22;34527;45.618;5.130;2023-08-01T05:40:35;20.40;99.90
48728;DHT22;34527;45.618;5.130;2023-08-01T05:43:01;20.50;99.90
48728;DHT22;34527;45.618;5.130;2023-08-01T05:45:27;20.40;99.90
48728;DHT22;34527;45.618;5.130;2023-08-01T05:47:52;20.50;99.90
48728;DHT22;34527;45.618;5.130;2023-08-01T05:50:18;20.50;99.90
48728;DHT22;34527;45.618;5.130;2023-08-01T05:52:43;20.50;99.90
48728;DHT22;34527;45.618;5.130;2023-08-01T05:55:09;20.60;99.90
48728;DHT22;34527;45.618;5.130;2023-08-01T05:57:35;20.60;99.90
48728;DHT22;34527;45.618;5.130;2023-08-01T06:00:00;20.60;99.90
48728;DHT22;34527;45.618;5.130;2023-08-01T06:02:26;20.60;99.90
48728;DHT22;34527;45.618;5.130;2023-08-01T06:04:52;20.60;99.90
48728;DHT22;34527;45.618;5.130;2023-08-01T06:07:18;20.70;99.90
48728;DHT22;34527;45.618;5.130;2023-08-01T06:09:50;20.80;99.90
48728;DHT22;34527;45.618;5.130;2023-08-01T06:12:17;21.00;99.90
48728;DHT22;34527;45.618;5.130;2023-08-01T06:14:43;21.00;99.90
48728;DHT22;34527;45.618;5.130;2023-08-01T06:17:09;20.90;99.90
48728;DHT22;34527;45.618;5.130;2023-08-01T06:19:34;21.00;99.90
48728;DHT22;34527;45.618;5.130;2023-08-01T06:22:00;21.00;99.90
48728;DHT22;34527;45.618;5.130;2023-08-01T06:24:26;21.10;99.90
48728;DHT22;34527;45.618;5.130;2023-08-01T06:26:51;21.00;99.90
48728;DHT22;34527;45.618;5.130;2023-08-01T06:29:17;21.00;99.90
48728;DHT22;34527;45.618;5.130;2023-08-01T06:31:42;21.00;99.90
48728;DHT22;34527;45.618;5.130;2023-08-01T06:34:08;21.10;99.90
48728;DHT22;34527;45.618;5.130;2023-08-01T06:36:33;21.10;99.90
48728;DHT22;34527;45.618;5.130;2023-08-01T06:39:00;21.20;99.90
48728;DHT22;34527;45.618;5.130;2023-08-01T06:41:26;21.20;99.90
48728;DHT22;34527;45.618;5.130;2023-08-01T06:43:51;21.30;99.90
48728;DHT22;34527;45.618;5.130;2023-08-01T06:46:17;21.40;99.90
48728;DHT22;34527;45.618;5.130;2023-08-01T06:48:42;21.40;99.90
48728;DHT22;34527;45.618;5.130;2023-08-01T06:51:08;21.40;99.90
48728;DHT22;34527;45.618;5.130;2023-08-01T06:53:33;21.40;99.90
48728;DHT22;34527;45.618;5.130;2023-08-01T06:55:59;21.50;99.90
48728;DHT22;34527;45.618;5.130;2023-08-01T06:58:25;21.50;99.90
48728;DHT22;34527;45.618;5.130;2023-08-01T07:00:50;21.60;99.90
48728;DHT22;34527;45.618;5.130;2023-08-01T07:03:16;21.60;99.90
48728;DHT22;34527;45.618;5.130;2023-08-01T07:05:42;21.70;99.90
48728;DHT22;34527;45.618;5.130;2023-08-01T07:08:07;21.70;99.90
48728;DHT22;34527;45.618;5.130;2023-08-01T07:10:36;21.80;99.90
48728;DHT22;34527;45.618;5.130;2023-08-01T07:13:02;21.80;99.90
48728;DHT22;34527;45.618;5.130;2023-08-01T07:15:30;21.90;99.90
48728;DHT22;34527;45.618;5.130;2023-08-01T07:17:56;22.00;99.90
48728;DHT22;34527;45.618;5.130;2023-08-01T07:20:22;22.00;99.90
48728;DHT22;34527;45.618;5.130;2023-08-01T07:22:47;22.10;99.90
48728;DHT22;34527;45.618;5.130;2023-08-01T07:25:13;22.10;99.90
48728;DHT22;34527;45.618;5.130;2023-08-01T07:27:39;22.20;99.90
48728;DHT22;34527;45.618;5.130;2023-08-01T07:30:05;22.20;99.90
48728;DHT22;34527;45.618;5.130;2023-08-01T07:32:31;22.20;99.90
48728;DHT22;34527;45.618;5.130;2023-08-01T07:34:56;22.30;99.90
48728;DHT22;34527;45.618;5.130;2023-08-01T07:37:22;22.30;99.90
48728;DHT22;34527;45.618;5.130;2023-08-01T07:39:49;22.40;99.90
48728;DHT22;34527;45.618;5.130;2023-08-01T07:42:15;22.40;99.90
48728;DHT22;34527;45.618;5.130;2023-08-01T07:44:40;22.40;99.90
48728;DHT22;34527;45.618;5.130;2023-08-01T07:47:06;22.50;99.90
48728;DHT22;34527;45.618;5.130;2023-08-01T07:49:32;22.50;99.90
48728;DHT22;34527;45.618;5.130;2023-08-01T07:51:57;22.50;99.90
48728;DHT22;34527;45.618;5.130;2023-08-01T07:54:24;22.70;99.90
48728;DHT22;34527;45.618;5.130;2023-08-01T07:56:49;22.80;99.90
48728;DHT22;34527;45.618;5.130;2023-08-01T07:59:15;22.90;99.90
48728;DHT22;34527;45.618;5.130;2023-08-01T08:01:41;23.00;99.90
48728;DHT22;34527;45.618;5.130;2023-08-01T08:04:07;23.00;99.90
48728;DHT22;34527;45.618;5.130;2023-08-01T08:06:32;23.10;99.90
48728;DHT22;34527;45.618;5.130;2023-08-01T08:08:58;23.10;99.90
48728;DHT22;34527;45.618;5.130;2023-08-01T08:11:24;23.10;99.90
48728;DHT22;34527;45.618;5.130;2023-08-01T08:13:49;23.10;99.90
48728;DHT22;34527;45.618;5.130;2023-08-01T08:16:15;23.10;99.90
48728;DHT22;34527;45.618;5.130;2023-08-01T08:18:41;23.10;99.90
48728;DHT22;34527;45.618;5.130;2023-08-01T08:21:07;23.10;99.90
48728;DHT22;34527;45.618;5.130;2023-08-01T08:23:33;23.20;99.90
48728;DHT22;34527;45.618;5.130;2023-08-01T08:25:58;23.20;99.90
48728;DHT22;34527;45.618;5.130;2023-08-01T08:28:32;23.20;99.90
48728;DHT22;34527;45.618;5.130;2023-08-01T08:30:58;23.30;99.90
48728;DHT22;34527;45.618;5.130;2023-08-01T08:33:24;23.30;99.90
48728;DHT22;34527;45.618;5.130;2023-08-01T08:35:50;23.30;99.90
48728;DHT22;34527;45.618;5.130;2023-08-01T08:38:17;23.40;99.90
48728;DHT22;34527;45.618;5.130;2023-08-01T08:41:10;23.40;99.90
48728;DHT22;34527;45.618;5.130;2023-08-01T08:43:34;23.40;99.90
48728;DHT22;34527;45.618;5.130;2023-08-01T08:46:02;23.50;99.90
48728;DHT22;34527;45.618;5.130;2023-08-01T08:48:29;23.40;99.90
48728;DHT22;34527;45.618;5.130;2023-08-01T08:50:58;23.30;99.90
48728;DHT22;34527;45.618;5.130;2023-08-01T08:53:25;23.30;99.90
48728;DHT22;34527;45.618;5.130;2023-08-01T08:55:51;23.50;99.90
48728;DHT22;34527;45.618;5.130;2023-08-01T08:58:16;23.60;99.90
48728;DHT22;34527;45.618;5.130;2023-08-01T09:00:43;23.70;99.90
48728;DHT22;34527;45.618;5.130;2023-08-01T09:03:09;23.80;99.90
48728;DHT22;34527;45.618;5.130;2023-08-01T09:05:51;23.80;99.90
48728;DHT22;34527;45.618;5.130;2023-08-01T09:08:20;23.90;99.90
48728;DHT22;34527;45.618;5.130;2023-08-01T09:10:47;23.80;99.90
48728;DHT22;34527;45.618;5.130;2023-08-01T09:13:13;23.80;99.90
48728;DHT22;34527;45.618;5.130;2023-08-01T09:15:41;23.80;99.90
48728;DHT22;34527;45.618;5.130;2023-08-01T09:18:08;23.70;99.90
48728;DHT22;34527;45.618;5.130;2023-08-01T09:20:47;23.70;99.90
48728;DHT22;34527;45.618;5.130;2023-08-01T09:23:14;23.80;99.90
48728;DHT22;34527;45.618;5.130;2023-08-01T09:25:40;23.90;99.90
48728;DHT22;34527;45.618;5.130;2023-08-01T09:28:20;23.90;99.90
48728;DHT22;34527;45.618;5.130;2023-08-01T09:30:47;24.00;99.90
48728;DHT22;34527;45.618;5.130;2023-08-01T09:33:13;24.20;99.90
48728;DHT22;34527;45.618;5.130;2023-08-01T09:35:39;24.30;99.90
48728;DHT22;34527;45.618;5.130;2023-08-01T09:38:04;24.40;99.90
48728;DHT22;34527;45.618;5.130;2023-08-01T09:40:40;24.20;99.90
48728;DHT22;34527;45.618;5.130;2023-08-01T09:43:05;24.30;99.90
48728;DHT22;34527;45.618;5.130;2023-08-01T09:45:31;24.30;99.90
48728;DHT22;34527;45.618;5.130;2023-08-01T09:47:57;24.40;99.90
48728;DHT22;34527;45.618;5.130;2023-08-01T09:50:23;24.40;99.90
48728;DHT22;34527;45.618;5.130;2023-08-01T09:52:49;24.50;99.90
48728;DHT22;34527;45.618;5.130;2023-08-01T09:55:47;24.70;99.90
48728;DHT22;34527;45.618;5.130;2023-08-01T09:58:17;25.00;99.90
48728;DHT22;34527;45.618;5.130;2023-08-01T10:00:47;25.30;99.90
48728;DHT22;34527;45.618;5.130;2023-08-01T10:03:12;25.30;99.90
48728;DHT22;34527;45.618;5.130;2023-08-01T10:05:40;25.10;99.90
48728;DHT22;34527;45.618;5.130;2023-08-01T10:08:07;25.10;99.90
48728;DHT22;34527;45.618;5.130;2023-08-01T10:10:33;25.00;99.90
48728;DHT22;34527;45.618;5.130;2023-08-01T10:13:01;25.00;99.90
48728;DHT22;34527;45.618;5.130;2023-08-01T10:15:28;25.00;99.90
48728;DHT22;34527;45.618;5.130;2023-08-01T10:17:54;25.10;99.90
48728;DHT22;34527;45.618;5.130;2023-08-01T10:20:21;25.10;99.90
48728;DHT22;34527;45.618;5.130;2023-08-01T10:22:49;25.30;99.90
48728;DHT22;34527;45.618;5.130;2023-08-01T10:25:17;25.40;99.90
48728;DHT22;34527;45.618;5.130;2023-08-01T10:27:43;25.50;99.90
48728;DHT22;34527;45.618;5.130;2023-08-01T10:30:09;25.40;99.90
48728;DHT22;34527;45.618;5.130;2023-08-01T10:32:38;25.40;99.90
48728;DHT22;34527;45.618;5.130;2023-08-01T10:35:05;25.70;99.90
48728;DHT22;34527;45.618;5.130;2023-08-01T10:37:42;25.90;99.90
48728;DHT22;34527;45.618;5.130;2023-08-01T10:40:08;26.30;99.90
48728;DHT22;34527;45.618;5.130;2023-08-01T10:42:38;26.40;99.90
48728;DHT22;34527;45.618;5.130;2023-08-01T10:45:04;26.60;99.90
48728;DHT22;34527;45.618;5.130;2023-08-01T10:47:30;26.60;99.90
48728;DHT22;34527;45.618;5.130;2023-08-01T10:49:57;26.60;99.90
48728;DHT22;34527;45.618;5.130;2023-08-01T10:52:25;26.60;99.90
48728;DHT22;34527;45.618;5.130;2023-08-01T10:55:01;26.60;99.90
48728;DHT22;34527;45.618;5.130;2023-08-01T10:57:28;26.20;99.90
48728;DHT22;34527;45.618;5.130;2023-08-01T10:59:58;26.00;99.90
48728;DHT22;34527;45.618;5.130;2023-08-01T11:02:28;26.30;99.90
48728;DHT22;34527;45.618;5.130;2023-08-01T11:05:01;26.60;99.90
48728;DHT22;34527;45.618;5.130;2023-08-01T11:07:28;26.60;99.90
48728;DHT22;34527;45.618;5.130;2023-08-01T11:10:13;26.50;99.90
48728;DHT22;34527;45.618;5.130;2023-08-01T11:12:41;26.30;99.90
48728;DHT22;34527;45.618;5.130;2023-08-01T11:15:09;26.30;99.90
48728;DHT22;34527;45.618;5.130;2023-08-01T11:17:42;26.30;99.90
48728;DHT22;34527;45.618;5.130;2023-08-01T11:20:10;26.30;99.90
48728;DHT22;34527;45.618;5.130;2023-08-01T11:22:58;26.30;99.90
48728;DHT22;34527;45.618;5.130;2023-08-01T11:25:40;26.40;99.90
48728;DHT22;34527;45.618;5.130;2023-08-01T11:28:08;26.80;99.90
48728;DHT22;34527;45.618;5.130;2023-08-01T11:30:35;27.10;99.90
48728;DHT22;34527;45.618;5.130;2023-08-01T11:33:01;27.30;99.90
48728;DHT22;34527;45.618;5.130;2023-08-01T11:35:28;27.60;99.90
48728;DHT22;34527;45.618;5.130;2023-08-01T11:37:54;27.70;99.90
48728;DHT22;34527;45.618;5.130;2023-08-01T11:40:20;27.70;99.90
48728;DHT22;34527;45.618;5.130;2023-08-01T11:42:50;27.50;99.90
48728;DHT22;34527;45.618;5.130;2023-08-01T11:45:18;27.20;99.90
48728;DHT22;34527;45.618;5.130;2023-08-01T11:47:47;27.30;99.90
48728;DHT22;34527;45.618;5.130;2023-08-01T11:50:14;27.20;99.90
48728;DHT22;34527;45.618;5.130;2023-08-01T11:52:39;27.60;99.90
48728;DHT22;34527;45.618;5.130;2023-08-01T11:55:06;27.70;99.90
48728;DHT22;34527;45.618;5.130;2023-08-01T11:57:31;27.60;99.90
48728;DHT22;34527;45.618;5.130;2023-08-01T11:59:57;27.60;99.90
48728;DHT22;34527;45.618;5.130;2023-08-01T12:02:26;27.60;99.90
48728;DHT22;34527;45.618;5.130;2023-08-01T12:04:52;27.70;99.90
48728;DHT22;34527;45.618;5.130;2023-08-01T12:07:19;27.90;99.90
48728;DHT22;34527;45.618;5.130;2023-08-01T12:09:55;27.80;99.90
48728;DHT22;34527;45.618;5.130;2023-08-01T12:12:21;27.70;99.90
48728;DHT22;34527;45.618;5.130;2023-08-01T12:14:46;27.80;99.90
48728;DHT22;34527;45.618;5.130;2023-08-01T12:17:12;27.50;99.90
48728;DHT22;34527;45.618;5.130;2023-08-01T12:19:37;27.70;99.90
48728;DHT22;34527;45.618;5.130;2023-08-01T12:22:03;27.70;99.90
48728;DHT22;34527;45.618;5.130;2023-08-01T12:24:29;27.80;99.90
48728;DHT22;34527;45.618;5.130;2023-08-01T12:26:54;27.80;99.90
48728;DHT22;34527;45.618;5.130;2023-08-01T12:29:20;27.80;99.90
48728;DHT22;34527;45.618;5.130;2023-08-01T12:31:45;27.80;99.90
48728;DHT22;34527;45.618;5.130;2023-08-01T12:34:11;27.10;99.90
48728;DHT22;34527;45.618;5.130;2023-08-01T12:36:37;26.90;99.90
48728;DHT22;34527;45.618;5.130;2023-08-01T12:39:02;26.70;99.90
48728;DHT22;34527;45.618;5.130;2023-08-01T12:41:28;26.70;99.90
48728;DHT22;34527;45.618;5.130;2023-08-01T12:43:54;26.60;99.90
48728;DHT22;34527;45.618;5.130;2023-08-01T12:46:20;26.50;99.90
48728;DHT22;34527;45.618;5.130;2023-08-01T12:48:46;26.40;99.90
48728;DHT22;34527;45.618;5.130;2023-08-01T12:51:12;26.20;99.90
48728;DHT22;34527;45.618;5.130;2023-08-01T12:53:39;26.00;99.90
48728;DHT22;34527;45.618;5.130;2023-08-01T12:56:05;25.80;99.90
48728;DHT22;34527;45.618;5.130;2023-08-01T12:58:31;25.50;99.90
48728;DHT22;34527;45.618;5.130;2023-08-01T13:00:57;25.30;99.90
48728;DHT22;34527;45.618;5.130;2023-08-01T13:03:22;25.00;99.90
48728;DHT22;34527;45.618;5.130;2023-08-01T13:05:48;24.80;99.90
48728;DHT22;34527;45.618;5.130;2023-08-01T13:08:14;24.60;99.90
48728;DHT22;34527;45.618;5.130;2023-08-01T13:10:39;24.80;99.90
48728;DHT22;34527;45.618;5.130;2023-08-01T13:13:05;24.90;99.90
48728;DHT22;34527;45.618;5.130;2023-08-01T13:15:31;24.90;99.90
48728;DHT22;34527;45.618;5.130;2023-08-01T13:17:57;25.10;99.90
48728;DHT22;34527;45.618;5.130;2023-08-01T13:20:22;25.40;99.90
48728;DHT22;34527;45.618;5.130;2023-08-01T13:22:51;25.60;99.90
48728;DHT22;34527;45.618;5.130;2023-08-01T13:25:18;25.70;99.90
48728;DHT22;34527;45.618;5.130;2023-08-01T13:27:44;25.70;99.90
48728;DHT22;34527;45.618;5.130;2023-08-01T13:30:09;25.70;99.90
48728;DHT22;34527;45.618;5.130;2023-08-01T13:32:36;25.70;99.90
48728;DHT22;34527;45.618;5.130;2023-08-01T13:35:01;25.50;99.90
48728;DHT22;34527;45.618;5.130;2023-08-01T13:37:27;25.40;99.90
48728;DHT22;34527;45.618;5.130;2023-08-01T13:39:56;25.30;99.90
48728;DHT22;34527;45.618;5.130;2023-08-01T13:42:21;25.20;99.90
48728;DHT22;34527;45.618;5.130;2023-08-01T13:44:47;25.20;99.90
48728;DHT22;34527;45.618;5.130;2023-08-01T13:47:12;25.10;99.90
48728;DHT22;34527;45.618;5.130;2023-08-01T13:49:38;25.10;99.90
48728;DHT22;34527;45.618;5.130;2023-08-01T13:52:04;25.00;99.90
48728;DHT22;34527;45.618;5.130;2023-08-01T13:54:30;25.00;99.90
48728;DHT22;34527;45.618;5.130;2023-08-01T13:56:56;25.00;99.90
48728;DHT22;34527;45.618;5.130;2023-08-01T13:59:22;25.20;99.90
48728;DHT22;34527;45.618;5.130;2023-08-01T14:01:48;25.50;99.90
48728;DHT22;34527;45.618;5.130;2023-08-01T14:04:13;25.60;99.90
48728;DHT22;34527;45.618;5.130;2023-08-01T14:06:40;25.70;99.90
48728;DHT22;34527;45.618;5.130;2023-08-01T14:09:07;25.70;99.90
48728;DHT22;34527;45.618;5.130;2023-08-01T14:11:34;25.70;99.90
48728;DHT22;34527;45.618;5.130;2023-08-01T14:14:00;25.60;99.90
48728;DHT22;34527;45.618;5.130;2023-08-01T14:16:25;25.40;99.90
48728;DHT22;34527;45.618;5.130;2023-08-01T14:18:51;25.40;99.90
48728;DHT22;34527;45.618;5.130;2023-08-01T14:21:16;25.30;99.90
48728;DHT22;34527;45.618;5.130;2023-08-01T14:23:42;25.30;99.90
48728;DHT22;34527;45.618;5.130;2023-08-01T14:26:08;25.20;99.90
48728;DHT22;34527;45.618;5.130;2023-08-01T14:28:34;25.20;99.90
48728;DHT22;34527;45.618;5.130;2023-08-01T14:31:03;25.20;99.90
48728;DHT22;34527;45.618;5.130;2023-08-01T14:33:29;25.60;99.90
48728;DHT22;34527;45.618;5.130;2023-08-01T14:35:55;25.90;99.90
48728;DHT22;34527;45.618;5.130;2023-08-01T14:38:20;25.90;99.90
48728;DHT22;34527;45.618;5.130;2023-08-01T14:40:46;25.90;99.90
48728;DHT22;34527;45.618;5.130;2023-08-01T14:43:12;25.90;99.90
48728;DHT22;34527;45.618;5.130;2023-08-01T14:45:41;25.90;99.90
48728;DHT22;34527;45.618;5.130;2023-08-01T14:48:07;25.90;99.90
48728;DHT22;34527;45.618;5.130;2023-08-01T14:50:33;25.90;99.90
48728;DHT22;34527;45.618;5.130;2023-08-01T14:53:00;25.90;99.90
48728;DHT22;34527;45.618;5.130;2023-08-01T14:55:26;26.00;99.90
48728;DHT22;34527;45.618;5.130;2023-08-01T14:57:52;26.40;99.90
48728;DHT22;34527;45.618;5.130;2023-08-01T15:00:18;26.70;99.90
48728;DHT22;34527;45.618;5.130;2023-08-01T15:02:43;26.80;99.90
48728;DHT22;34527;45.618;5.130;2023-08-01T15:05:09;26.60;99.90
48728;DHT22;34527;45.618;5.130;2023-08-01T15:07:35;26.60;99.90
48728;DHT22;34527;45.618;5.130;2023-08-01T15:10:00;26.80;99.90
48728;DHT22;34527;45.618;5.130;2023-08-01T15:12:26;26.70;99.90
48728;DHT22;34527;45.618;5.130;2023-08-01T15:14:55;26.50;99.90
48728;DHT22;34527;45.618;5.130;2023-08-01T15:17:21;26.00;99.90
48728;DHT22;34527;45.618;5.130;2023-08-01T15:19:46;25.70;99.90
48728;DHT22;34527;45.618;5.130;2023-08-01T15:22:19;25.40;99.90
48728;DHT22;34527;45.618;5.130;2023-08-01T15:24:45;25.40;99.90